Albany, New York
Traffic Map
Current Weather Conditions
Albany, New York
Scattered Clouds
Scattered Clouds
21°
Feels Like: 21°
Wind Chill: 21° Ceiling: Unl
Heat Index: 21° Visibility: 10mi
Dew Point: 18° Wind: 0mph
Humidity: 84% Direction: ° ()
Pressure: 30.09in Gusts: 0mph
Raw Report DataKALB 290851Z 00000KT 10SM FEW120 SCT260 21/18 A3009 RMK AO2 SLP187 T02110183 55001
Traffic Incident Summary
Active as of:
Severity:
Category:
InformationThere was an issue retrieving the traffic information for this location. Please try a different location or try again shortly.
Advertisements
Track Severe Weather on mobile